sensor_id;sensor_type;location;lat;lon;timestamp;P1;durP1;ratioP1;P2;durP2;ratioP2
54438;SDS011;40347;53.848;27.498;2022-11-04T00:03:50;7.7;;;3.1;;
54438;SDS011;40347;53.848;27.498;2022-11-04T00:09:09;8.4;;;3.1;;
54438;SDS011;40347;53.848;27.498;2022-11-04T00:13:57;7.7;;;3.2;;
54438;SDS011;40347;53.848;27.498;2022-11-04T00:18:49;9.1;;;3.2;;
54438;SDS011;40347;53.848;27.498;2022-11-04T00:24:07;8.1;;;3.2;;
54438;SDS011;40347;53.848;27.498;2022-11-04T00:28:49;7;;;3.2;;
54438;SDS011;40347;53.848;27.498;2022-11-04T00:33:50;7.7;;;3.2;;
54438;SDS011;40347;53.848;27.498;2022-11-04T00:38:49;9.2;;;3.3;;
54438;SDS011;40347;53.848;27.498;2022-11-04T00:43:56;6.9;;;3.1;;
54438;SDS011;40347;53.848;27.498;2022-11-04T00:48:55;7.9;;;3;;
54438;SDS011;40347;53.848;27.498;2022-11-04T00:54:03;6.7;;;3;;
54438;SDS011;40347;53.848;27.498;2022-11-04T00:59:25;7.5;;;3.2;;
54438;SDS011;40347;53.848;27.498;2022-11-04T01:03:50;7.4;;;3.3;;
54438;SDS011;40347;53.848;27.498;2022-11-04T01:08:53;7.8;;;3.1;;
54438;SDS011;40347;53.848;27.498;2022-11-04T01:13:59;7.4;;;3.3;;
54438;SDS011;40347;53.848;27.498;2022-11-04T01:19:03;6.8;;;3.1;;
54438;SDS011;40347;53.848;27.498;2022-11-04T01:24:01;7.3;;;3.1;;
54438;SDS011;40347;53.848;27.498;2022-11-04T01:29:27;8.3;;;3.2;;
54438;SDS011;40347;53.848;27.498;2022-11-04T01:33:50;8.7;;;3.2;;
54438;SDS011;40347;53.848;27.498;2022-11-04T01:38:49;8.9;;;3.2;;
54438;SDS011;40347;53.848;27.498;2022-11-04T01:44:42;6.7;;;3;;
54438;SDS011;40347;53.848;27.498;2022-11-04T01:49:03;6.9;;;3;;
54438;SDS011;40347;53.848;27.498;2022-11-04T01:53:49;8.2;;;3.1;;
54438;SDS011;40347;53.848;27.498;2022-11-04T01:58:50;7.3;;;3.3;;
54438;SDS011;40347;53.848;27.498;2022-11-04T02:03:50;6.1;;;3;;
54438;SDS011;40347;53.848;27.498;2022-11-04T02:08:49;5.6;;;2.8;;
54438;SDS011;40347;53.848;27.498;2022-11-04T02:14:15;7.8;;;3.1;;
54438;SDS011;40347;53.848;27.498;2022-11-04T02:18:57;6.1;;;2.9;;
54438;SDS011;40347;53.848;27.498;2022-11-04T02:23:58;6.9;;;3.1;;
54438;SDS011;40347;53.848;27.498;2022-11-04T02:28:59;7.5;;;3;;
54438;SDS011;40347;53.848;27.498;2022-11-04T02:34:17;6.6;;;3;;
54438;SDS011;40347;53.848;27.498;2022-11-04T02:38:50;5.5;;;2.8;;
54438;SDS011;40347;53.848;27.498;2022-11-04T02:44:12;7.3;;;3.1;;
54438;SDS011;40347;53.848;27.498;2022-11-04T02:48:58;8.3;;;3.6;;
54438;SDS011;40347;53.848;27.498;2022-11-04T02:53:58;6.8;;;3.6;;
54438;SDS011;40347;53.848;27.498;2022-11-04T02:59:13;9.2;;;4.3;;
54438;SDS011;40347;53.848;27.498;2022-11-04T03:03:50;9.4;;;4.4;;
54438;SDS011;40347;53.848;27.498;2022-11-04T03:08:50;11.8;;;4.9;;
54438;SDS011;40347;53.848;27.498;2022-11-04T03:13:51;10.3;;;4.6;;
54438;SDS011;40347;53.848;27.498;2022-11-04T03:18:57;10;;;4.6;;
54438;SDS011;40347;53.848;27.498;2022-11-04T03:24:03;9.8;;;4.6;;
54438;SDS011;40347;53.848;27.498;2022-11-04T03:29:19;8.7;;;4.6;;
54438;SDS011;40347;53.848;27.498;2022-11-04T03:33:50;9.6;;;5.1;;
54438;SDS011;40347;53.848;27.498;2022-11-04T03:39:37;10.4;;;5.2;;
54438;SDS011;40347;53.848;27.498;2022-11-04T03:44:35;10.6;;;4.8;;
54438;SDS011;40347;53.848;27.498;2022-11-04T03:48:50;8.7;;;4.5;;
54438;SDS011;40347;53.848;27.498;2022-11-04T03:54:09;8.8;;;4.6;;
54438;SDS011;40347;53.848;27.498;2022-11-04T03:58:51;10.6;;;4.8;;
54438;SDS011;40347;53.848;27.498;2022-11-04T04:03:56;11;;;5.4;;
54438;SDS011;40347;53.848;27.498;2022-11-04T04:08:56;10.6;;;5.1;;
54438;SDS011;40347;53.848;27.498;2022-11-04T04:13:52;9.5;;;4.9;;
54438;SDS011;40347;53.848;27.498;2022-11-04T04:19:02;10.4;;;5.4;;
54438;SDS011;40347;53.848;27.498;2022-11-04T04:23:50;11.9;;;5.1;;
54438;SDS011;40347;53.848;27.498;2022-11-04T04:28:49;9.8;;;4.8;;
54438;SDS011;40347;53.848;27.498;2022-11-04T04:34:03;9.3;;;4.6;;
54438;SDS011;40347;53.848;27.498;2022-11-04T04:39:03;9.9;;;4.9;;
54438;SDS011;40347;53.848;27.498;2022-11-04T04:44:04;11.7;;;5.3;;
54438;SDS011;40347;53.848;27.498;2022-11-04T04:48:49;11.6;;;5.1;;
54438;SDS011;40347;53.848;27.498;2022-11-04T04:53:49;12.4;;;5.3;;
54438;SDS011;40347;53.848;27.498;2022-11-04T04:59:07;10.8;;;4.8;;
54438;SDS011;40347;53.848;27.498;2022-11-04T05:04:03;9.8;;;4.5;;
54438;SDS011;40347;53.848;27.498;2022-11-04T05:08:49;9.8;;;4.2;;
54438;SDS011;40347;53.848;27.498;2022-11-04T05:13:50;9;;;4.1;;
54438;SDS011;40347;53.848;27.498;2022-11-04T05:18:59;9.1;;;3.9;;
54438;SDS011;40347;53.848;27.498;2022-11-04T05:23:55;9;;;4.2;;
54438;SDS011;40347;53.848;27.498;2022-11-04T05:29:03;9.3;;;4.7;;
54438;SDS011;40347;53.848;27.498;2022-11-04T05:34:01;9.8;;;4.6;;
54438;SDS011;40347;53.848;27.498;2022-11-04T05:38:59;9.1;;;4.9;;
54438;SDS011;40347;53.848;27.498;2022-11-04T05:44:00;9.5;;;4.7;;
54438;SDS011;40347;53.848;27.498;2022-11-04T05:48:55;8.3;;;4.4;;
54438;SDS011;40347;53.848;27.498;2022-11-04T05:54:03;9.5;;;5;;
54438;SDS011;40347;53.848;27.498;2022-11-04T05:59:01;10.1;;;5.6;;
54438;SDS011;40347;53.848;27.498;2022-11-04T06:03:59;10.1;;;5.7;;
54438;SDS011;40347;53.848;27.498;2022-11-04T06:09:15;12.9;;;6.4;;
54438;SDS011;40347;53.848;27.498;2022-11-04T06:13:49;13;;;6.5;;
54438;SDS011;40347;53.848;27.498;2022-11-04T06:19:01;13.1;;;6.9;;
54438;SDS011;40347;53.848;27.498;2022-11-04T06:24:09;12.3;;;6.9;;
54438;SDS011;40347;53.848;27.498;2022-11-04T06:28:49;11.2;;;6.1;;
54438;SDS011;40347;53.848;27.498;2022-11-04T06:33:49;8.7;;;5;;
54438;SDS011;40347;53.848;27.498;2022-11-04T06:38:49;8.5;;;4.8;;
54438;SDS011;40347;53.848;27.498;2022-11-04T06:44:25;10.2;;;4.9;;
54438;SDS011;40347;53.848;27.498;2022-11-04T06:49:02;8.9;;;4.8;;
54438;SDS011;40347;53.848;27.498;2022-11-04T06:53:49;10.4;;;5.5;;
54438;SDS011;40347;53.848;27.498;2022-11-04T06:58:50;9.3;;;4.7;;
54438;SDS011;40347;53.848;27.498;2022-11-04T07:03:50;9.6;;;5.1;;
54438;SDS011;40347;53.848;27.498;2022-11-04T07:08:50;9.8;;;4.7;;
54438;SDS011;40347;53.848;27.498;2022-11-04T07:14:15;8.5;;;4.2;;
54438;SDS011;40347;53.848;27.498;2022-11-04T07:18:49;9.4;;;5;;
54438;SDS011;40347;53.848;27.498;2022-11-04T07:23:57;12;;;6.2;;
54438;SDS011;40347;53.848;27.498;2022-11-04T07:28:49;13.3;;;6.9;;
54438;SDS011;40347;53.848;27.498;2022-11-04T07:34:15;10.9;;;6.3;;
54438;SDS011;40347;53.848;27.498;2022-11-04T07:38:49;10;;;5.7;;
54438;SDS011;40347;53.848;27.498;2022-11-04T07:44:01;9.8;;;5.4;;
54438;SDS011;40347;53.848;27.498;2022-11-04T07:49:08;9.5;;;5.5;;
54438;SDS011;40347;53.848;27.498;2022-11-04T07:53:49;12.1;;;6.3;;
54438;SDS011;40347;53.848;27.498;2022-11-04T07:58:49;15.5;;;7.5;;
54438;SDS011;40347;53.848;27.498;2022-11-04T08:04:01;16.5;;;8.6;;
54438;SDS011;40347;53.848;27.498;2022-11-04T08:09:13;13.6;;;7.1;;
54438;SDS011;40347;53.848;27.498;2022-11-04T08:13:49;11.5;;;5.9;;
54438;SDS011;40347;53.848;27.498;2022-11-04T08:18:50;11.1;;;5.1;;
54438;SDS011;40347;53.848;27.498;2022-11-04T08:23:50;9.4;;;4.7;;
54438;SDS011;40347;53.848;27.498;2022-11-04T08:29:04;8.6;;;4.5;;
54438;SDS011;40347;53.848;27.498;2022-11-04T08:33:50;9.2;;;5;;
54438;SDS011;40347;53.848;27.498;2022-11-04T08:38:50;8.7;;;4.8;;
54438;SDS011;40347;53.848;27.498;2022-11-04T08:44:21;9.6;;;5.2;;
54438;SDS011;40347;53.848;27.498;2022-11-04T08:48:49;9.6;;;5.5;;
54438;SDS011;40347;53.848;27.498;2022-11-04T08:54:02;11.1;;;6;;
54438;SDS011;40347;53.848;27.498;2022-11-04T08:59:09;11.7;;;5.9;;
54438;SDS011;40347;53.848;27.498;2022-11-04T09:03:57;10.6;;;6;;
54438;SDS011;40347;53.848;27.498;2022-11-04T09:08:50;11.8;;;6.2;;
54438;SDS011;40347;53.848;27.498;2022-11-04T09:13:49;11.1;;;6.1;;
54438;SDS011;40347;53.848;27.498;2022-11-04T09:19:12;12.7;;;6;;
54438;SDS011;40347;53.848;27.498;2022-11-04T09:23:50;13.5;;;6.5;;
54438;SDS011;40347;53.848;27.498;2022-11-04T09:28:51;14;;;6.6;;
54438;SDS011;40347;53.848;27.498;2022-11-04T09:33:56;14.4;;;6.2;;
54438;SDS011;40347;53.848;27.498;2022-11-04T09:39:04;13.8;;;6.9;;
54438;SDS011;40347;53.848;27.498;2022-11-04T09:43:51;12.1;;;5.9;;
54438;SDS011;40347;53.848;27.498;2022-11-04T09:48:57;10.5;;;5.6;;
54438;SDS011;40347;53.848;27.498;2022-11-04T09:53:50;9.8;;;5.6;;
54438;SDS011;40347;53.848;27.498;2022-11-04T09:58:58;10.6;;;5.9;;
54438;SDS011;40347;53.848;27.498;2022-11-04T10:03:52;10.2;;;5.7;;
54438;SDS011;40347;53.848;27.498;2022-11-04T10:09:05;10.3;;;5.7;;
54438;SDS011;40347;53.848;27.498;2022-11-04T10:13:52;10.6;;;6;;
54438;SDS011;40347;53.848;27.498;2022-11-04T10:19:06;11.4;;;5.7;;
54438;SDS011;40347;53.848;27.498;2022-11-04T10:23:55;12.4;;;6.1;;
54438;SDS011;40347;53.848;27.498;2022-11-04T10:28:57;11.9;;;6.4;;
54438;SDS011;40347;53.848;27.498;2022-11-04T10:33:51;10.8;;;5.8;;
54438;SDS011;40347;53.848;27.498;2022-11-04T10:38:50;11.7;;;6.1;;
54438;SDS011;40347;53.848;27.498;2022-11-04T10:44:03;13.8;;;6.1;;
54438;SDS011;40347;53.848;27.498;2022-11-04T10:48:57;11.4;;;5.8;;
54438;SDS011;40347;53.848;27.498;2022-11-04T10:54:04;10.7;;;5.7;;
54438;SDS011;40347;53.848;27.498;2022-11-04T10:59:05;11.5;;;6.2;;
54438;SDS011;40347;53.848;27.498;2022-11-04T11:03:58;12;;;6;;
54438;SDS011;40347;53.848;27.498;2022-11-04T11:09:10;10;;;6;;
54438;SDS011;40347;53.848;27.498;2022-11-04T11:13:50;10.5;;;6.1;;
54438;SDS011;40347;53.848;27.498;2022-11-04T11:19:08;11.2;;;6.5;;
54438;SDS011;40347;53.848;27.498;2022-11-04T11:23:50;12.8;;;7.1;;
54438;SDS011;40347;53.848;27.498;2022-11-04T11:28:50;13;;;7.3;;
54438;SDS011;40347;53.848;27.498;2022-11-04T11:33:51;18.4;;;8.5;;
54438;SDS011;40347;53.848;27.498;2022-11-04T11:39:13;18.8;;;9.6;;
54438;SDS011;40347;53.848;27.498;2022-11-04T11:43:57;18.8;;;9.6;;
54438;SDS011;40347;53.848;27.498;2022-11-04T11:48:50;16.1;;;9;;
54438;SDS011;40347;53.848;27.498;2022-11-04T11:54:33;13.9;;;7.4;;
54438;SDS011;40347;53.848;27.498;2022-11-04T11:58:50;12.8;;;6.1;;
54438;SDS011;40347;53.848;27.498;2022-11-04T12:03:58;10.6;;;5.5;;
54438;SDS011;40347;53.848;27.498;2022-11-04T12:09:16;12.5;;;6.2;;
54438;SDS011;40347;53.848;27.498;2022-11-04T12:13:51;10.5;;;5.7;;
54438;SDS011;40347;53.848;27.498;2022-11-04T12:18:55;11.1;;;5.5;;
54438;SDS011;40347;53.848;27.498;2022-11-04T12:24:26;10.3;;;5.6;;
54438;SDS011;40347;53.848;27.498;2022-11-04T12:29:28;11.8;;;5.9;;
54438;SDS011;40347;53.848;27.498;2022-11-04T12:33:52;10.7;;;5.6;;
54438;SDS011;40347;53.848;27.498;2022-11-04T12:38:54;10.2;;;5.3;;
54438;SDS011;40347;53.848;27.498;2022-11-04T12:44:19;10.7;;;5.4;;
54438;SDS011;40347;53.848;27.498;2022-11-04T12:49:11;11;;;5.6;;
54438;SDS011;40347;53.848;27.498;2022-11-04T12:53:59;10.9;;;5.8;;
54438;SDS011;40347;53.848;27.498;2022-11-04T12:59:03;9.8;;;5.3;;
54438;SDS011;40347;53.848;27.498;2022-11-04T13:04:02;10.3;;;5.3;;
54438;SDS011;40347;53.848;27.498;2022-11-04T13:08:50;9.8;;;5.1;;
54438;SDS011;40347;53.848;27.498;2022-11-04T13:13:52;8.6;;;4.7;;
54438;SDS011;40347;53.848;27.498;2022-11-04T13:18:56;9.1;;;4.6;;
54438;SDS011;40347;53.848;27.498;2022-11-04T13:24:00;8.3;;;4.8;;
54438;SDS011;40347;53.848;27.498;2022-11-04T13:29:16;9.2;;;4.7;;
54438;SDS011;40347;53.848;27.498;2022-11-04T13:34:04;9.2;;;4.8;;
54438;SDS011;40347;53.848;27.498;2022-11-04T13:38:50;8.5;;;4.5;;
54438;SDS011;40347;53.848;27.498;2022-11-04T13:44:12;8.8;;;4.4;;
54438;SDS011;40347;53.848;27.498;2022-11-04T13:49:02;8.1;;;4.3;;
54438;SDS011;40347;53.848;27.498;2022-11-04T13:53:51;8;;;4.4;;
54438;SDS011;40347;53.848;27.498;2022-11-04T13:59:17;7.3;;;4;;
54438;SDS011;40347;53.848;27.498;2022-11-04T14:03:50;7.7;;;4.1;;
54438;SDS011;40347;53.848;27.498;2022-11-04T14:09:22;7.6;;;4;;
54438;SDS011;40347;53.848;27.498;2022-11-04T14:14:18;7;;;3.8;;
54438;SDS011;40347;53.848;27.498;2022-11-04T14:19:45;8.1;;;4.3;;
54438;SDS011;40347;53.848;27.498;2022-11-04T14:24:10;11.8;;;5.8;;
54438;SDS011;40347;53.848;27.498;2022-11-04T14:28:59;11.7;;;7.1;;
54438;SDS011;40347;53.848;27.498;2022-11-04T14:33:50;12.8;;;7.6;;
54438;SDS011;40347;53.848;27.498;2022-11-04T14:39:06;15.4;;;8.8;;
54438;SDS011;40347;53.848;27.498;2022-11-04T14:43:50;14.9;;;8.9;;
54438;SDS011;40347;53.848;27.498;2022-11-04T14:48:58;15.1;;;8.8;;
54438;SDS011;40347;53.848;27.498;2022-11-04T14:54:25;15.6;;;9.1;;
54438;SDS011;40347;53.848;27.498;2022-11-04T14:58:57;14.6;;;9.2;;
54438;SDS011;40347;53.848;27.498;2022-11-04T15:03:50;15.7;;;9.7;;
54438;SDS011;40347;53.848;27.498;2022-11-04T15:09:17;15.8;;;9.7;;
54438;SDS011;40347;53.848;27.498;2022-11-04T15:13:55;16.4;;;9.7;;
54438;SDS011;40347;53.848;27.498;2022-11-04T15:19:08;14.9;;;9.2;;
54438;SDS011;40347;53.848;27.498;2022-11-04T15:23:51;16.9;;;9.5;;
54438;SDS011;40347;53.848;27.498;2022-11-04T15:29:10;16.7;;;9.1;;
54438;SDS011;40347;53.848;27.498;2022-11-04T15:34:02;16;;;9.1;;
54438;SDS011;40347;53.848;27.498;2022-11-04T15:38:50;15.6;;;9.1;;
54438;SDS011;40347;53.848;27.498;2022-11-04T15:43:50;16.3;;;8.6;;
54438;SDS011;40347;53.848;27.498;2022-11-04T15:48:58;14.1;;;8.3;;
54438;SDS011;40347;53.848;27.498;2022-11-04T15:53:51;15.3;;;8.3;;
54438;SDS011;40347;53.848;27.498;2022-11-04T15:58:50;14.8;;;7.9;;
54438;SDS011;40347;53.848;27.498;2022-11-04T16:04:02;13.1;;;7.8;;
54438;SDS011;40347;53.848;27.498;2022-11-04T16:09:01;13.5;;;7.6;;
54438;SDS011;40347;53.848;27.498;2022-11-04T16:13:50;12.1;;;7.7;;
54438;SDS011;40347;53.848;27.498;2022-11-04T16:18:51;12;;;7.2;;
54438;SDS011;40347;53.848;27.498;2022-11-04T16:24:16;13.5;;;7.1;;
54438;SDS011;40347;53.848;27.498;2022-11-04T16:28:51;12.1;;;7.2;;
54438;SDS011;40347;53.848;27.498;2022-11-04T16:34:02;11.7;;;7;;
54438;SDS011;40347;53.848;27.498;2022-11-04T16:38:51;11;;;6.3;;
54438;SDS011;40347;53.848;27.498;2022-11-04T16:43:50;10.8;;;6.4;;
54438;SDS011;40347;53.848;27.498;2022-11-04T16:49:04;15.2;;;6.6;;
54438;SDS011;40347;53.848;27.498;2022-11-04T16:53:50;13.3;;;6.5;;
54438;SDS011;40347;53.848;27.498;2022-11-04T16:58:50;11;;;6.1;;
54438;SDS011;40347;53.848;27.498;2022-11-04T17:03:50;10.7;;;6.5;;
54438;SDS011;40347;53.848;27.498;2022-11-04T17:09:00;11.6;;;6.3;;
54438;SDS011;40347;53.848;27.498;2022-11-04T17:14:14;10.2;;;5.9;;
54438;SDS011;40347;53.848;27.498;2022-11-04T17:19:02;10.8;;;5.7;;
54438;SDS011;40347;53.848;27.498;2022-11-04T17:23:50;12;;;6;;
54438;SDS011;40347;53.848;27.498;2022-11-04T17:29:12;11.2;;;6.2;;
54438;SDS011;40347;53.848;27.498;2022-11-04T17:33:58;10.9;;;6.1;;
54438;SDS011;40347;53.848;27.498;2022-11-04T17:39:14;11;;;6;;
54438;SDS011;40347;53.848;27.498;2022-11-04T17:44:02;10;;;5.7;;
54438;SDS011;40347;53.848;27.498;2022-11-04T17:49:04;10.2;;;5.8;;
54438;SDS011;40347;53.848;27.498;2022-11-04T17:53:50;10.1;;;5.7;;
54438;SDS011;40347;53.848;27.498;2022-11-04T17:59:04;9.6;;;5.3;;
54438;SDS011;40347;53.848;27.498;2022-11-04T18:03:50;9;;;5.1;;
54438;SDS011;40347;53.848;27.498;2022-11-04T18:09:12;8.5;;;4.9;;
54438;SDS011;40347;53.848;27.498;2022-11-04T18:13:50;9.5;;;4.8;;
54438;SDS011;40347;53.848;27.498;2022-11-04T18:18:58;8.8;;;4.5;;
54438;SDS011;40347;53.848;27.498;2022-11-04T18:23:50;7.9;;;4.3;;
54438;SDS011;40347;53.848;27.498;2022-11-04T18:28:50;7.5;;;4.1;;
54438;SDS011;40347;53.848;27.498;2022-11-04T18:33:50;8.1;;;3.8;;
54438;SDS011;40347;53.848;27.498;2022-11-04T18:39:00;7;;;3.8;;
54438;SDS011;40347;53.848;27.498;2022-11-04T18:43:50;7;;;3.8;;
54438;SDS011;40347;53.848;27.498;2022-11-04T18:48:50;7.3;;;3.9;;
54438;SDS011;40347;53.848;27.498;2022-11-04T18:54:05;6.3;;;3.5;;
54438;SDS011;40347;53.848;27.498;2022-11-04T18:58:50;6.9;;;3.5;;
54438;SDS011;40347;53.848;27.498;2022-11-04T19:03:50;6.8;;;3.3;;
54438;SDS011;40347;53.848;27.498;2022-11-04T19:08:58;8.1;;;3.6;;
54438;SDS011;40347;53.848;27.498;2022-11-04T19:14:05;7.4;;;3.7;;
54438;SDS011;40347;53.848;27.498;2022-11-04T19:18:50;7.6;;;4.1;;
54438;SDS011;40347;53.848;27.498;2022-11-04T19:24:14;6.6;;;3.7;;
54438;SDS011;40347;53.848;27.498;2022-11-04T19:28:50;6.1;;;3.4;;
54438;SDS011;40347;53.848;27.498;2022-11-04T19:33:50;5.5;;;2.9;;
54438;SDS011;40347;53.848;27.498;2022-11-04T19:39:04;5.2;;;2.7;;
54438;SDS011;40347;53.848;27.498;2022-11-04T19:43:50;4.8;;;2.6;;
54438;SDS011;40347;53.848;27.498;2022-11-04T19:48:50;6.8;;;2.9;;
54438;SDS011;40347;53.848;27.498;2022-11-04T19:54:02;5.5;;;3;;
54438;SDS011;40347;53.848;27.498;2022-11-04T19:59:12;5.2;;;3;;
54438;SDS011;40347;53.848;27.498;2022-11-04T20:03:50;7.3;;;3.5;;
54438;SDS011;40347;53.848;27.498;2022-11-04T20:09:05;6.9;;;3.4;;
54438;SDS011;40347;53.848;27.498;2022-11-04T20:14:02;6;;;3.1;;
54438;SDS011;40347;53.848;27.498;2022-11-04T20:19:14;6.9;;;3.2;;
54438;SDS011;40347;53.848;27.498;2022-11-04T20:24:05;6.8;;;3.4;;
54438;SDS011;40347;53.848;27.498;2022-11-04T20:28:50;8.1;;;3.9;;
54438;SDS011;40347;53.848;27.498;2022-11-04T20:33:51;8.6;;;5;;
54438;SDS011;40347;53.848;27.498;2022-11-04T20:39:01;7.6;;;4.1;;
54438;SDS011;40347;53.848;27.498;2022-11-04T20:43:50;8.1;;;4.3;;
54438;SDS011;40347;53.848;27.498;2022-11-04T20:49:04;9.2;;;3.9;;
54438;SDS011;40347;53.848;27.498;2022-11-04T20:54:14;6.6;;;3.5;;
54438;SDS011;40347;53.848;27.498;2022-11-04T20:59:04;7;;;3.4;;
54438;SDS011;40347;53.848;27.498;2022-11-04T21:04:03;8;;;3.8;;
54438;SDS011;40347;53.848;27.498;2022-11-04T21:09:02;7.4;;;4.2;;
54438;SDS011;40347;53.848;27.498;2022-11-04T21:13:50;7.5;;;4.1;;
54438;SDS011;40347;53.848;27.498;2022-11-04T21:18:50;8.4;;;4.3;;
54438;SDS011;40347;53.848;27.498;2022-11-04T21:23:54;7.6;;;4.3;;
54438;SDS011;40347;53.848;27.498;2022-11-04T21:29:03;9.8;;;4.2;;
54438;SDS011;40347;53.848;27.498;2022-11-04T21:33:50;7.1;;;4;;
54438;SDS011;40347;53.848;27.498;2022-11-04T21:38:50;6.9;;;3.9;;
54438;SDS011;40347;53.848;27.498;2022-11-04T21:43:58;7.7;;;4;;
54438;SDS011;40347;53.848;27.498;2022-11-04T21:49:10;7.8;;;4.4;;
54438;SDS011;40347;53.848;27.498;2022-11-04T21:54:03;11.9;;;5.7;;
54438;SDS011;40347;53.848;27.498;2022-11-04T21:58:50;10.2;;;5.5;;
54438;SDS011;40347;53.848;27.498;2022-11-04T22:03:51;9;;;5.8;;
54438;SDS011;40347;53.848;27.498;2022-11-04T22:08:50;11.2;;;5.8;;
54438;SDS011;40347;53.848;27.498;2022-11-04T22:14:04;11.1;;;6;;
54438;SDS011;40347;53.848;27.498;2022-11-04T22:19:03;12.4;;;6.3;;
54438;SDS011;40347;53.848;27.498;2022-11-04T22:24:00;11.5;;;6.8;;
54438;SDS011;40347;53.848;27.498;2022-11-04T22:28:58;11.7;;;7.2;;
54438;SDS011;40347;53.848;27.498;2022-11-04T22:33:51;12.1;;;7.2;;
54438;SDS011;40347;53.848;27.498;2022-11-04T22:39:04;11.9;;;7.2;;
54438;SDS011;40347;53.848;27.498;2022-11-04T22:44:10;11.9;;;7.3;;
54438;SDS011;40347;53.848;27.498;2022-11-04T22:48:50;11.9;;;7.3;;
54438;SDS011;40347;53.848;27.498;2022-11-04T22:54:14;12.8;;;8.1;;
54438;SDS011;40347;53.848;27.498;2022-11-04T22:58:50;16;;;8.8;;
54438;SDS011;40347;53.848;27.498;2022-11-04T23:04:04;13.9;;;8.7;;
54438;SDS011;40347;53.848;27.498;2022-11-04T23:08:50;14.3;;;8.3;;
54438;SDS011;40347;53.848;27.498;2022-11-04T23:13:51;14.7;;;8.5;;
54438;SDS011;40347;53.848;27.498;2022-11-04T23:18:58;13.5;;;8.5;;
54438;SDS011;40347;53.848;27.498;2022-11-04T23:23:58;13.4;;;8.2;;
54438;SDS011;40347;53.848;27.498;2022-11-04T23:29:04;13;;;7.8;;
54438;SDS011;40347;53.848;27.498;2022-11-04T23:33:50;13.9;;;8.2;;
54438;SDS011;40347;53.848;27.498;2022-11-04T23:39:00;13.9;;;7.8;;
54438;SDS011;40347;53.848;27.498;2022-11-04T23:43:58;12.2;;;7.5;;
54438;SDS011;40347;53.848;27.498;2022-11-04T23:48:50;12.8;;;8.2;;
54438;SDS011;40347;53.848;27.498;2022-11-04T23:53:50;13.7;;;8.3;;
54438;SDS011;40347;53.848;27.498;2022-11-04T23:59:03;12.6;;;8.1;;
